Time;durP1;ratioP1;P1;durP2;ratioP2;P2;SDS_P1;SDS_P2;PMS_P1;PMS_P2;Temp;Humidity;BMP_temperature;BMP_pressure;BME280_temperature;BME280_humidity;BME280_pressure;Samples;Min_cycle;Max_cycle;Signal;HPM_P1;HPM_P2
2023/09/22 00:02:00;;;;;;;13.30;9.93;;;;;;;;;;5131147;27;20663;-70
2023/09/22 00:04:26;;;;;;;14.38;10.68;;;;;;;;;;5151087;27;20196;-68
2023/09/22 00:06:51;;;;;;;13.98;10.77;;;;;;;;;;5143151;27;20187;-72
2023/09/22 00:09:16;;;;;;;12.73;10.05;;;;;;;;;;5105727;27;20190;-70
2023/09/22 00:11:42;;;;;;;12.23;9.85;;;;;;;;;;5148941;27;20530;-73
2023/09/22 00:14:07;;;;;;;11.23;9.93;;;;;;;;;;5122054;27;20206;-70
2023/09/22 00:16:34;;;;;;;14.60;10.60;;;;;;;;;;5138209;27;20269;-72
2023/09/22 00:19:04;;;;;;;13.85;11.20;;;;;;;;;;5132727;27;20209;-72
2023/09/22 00:21:30;;;;;;;16.15;11.00;;;;;;;;;;5146140;27;20285;-71
2023/09/22 00:23:56;;;;;;;15.43;9.55;;;;;;;;;;5147121;27;20293;-72
2023/09/22 00:26:22;;;;;;;14.40;10.82;;;;;;;;;;5135594;27;20261;-69
2023/09/22 00:28:47;;;;;;;14.43;10.73;;;;;;;;;;5134255;27;20248;-72
2023/09/22 00:31:12;;;;;;;14.35;11.93;;;;;;;;;;5120062;27;20190;-72
2023/09/22 00:33:38;;;;;;;16.75;12.95;;;;;;;;;;5135702;27;20270;-73
2023/09/22 00:36:03;;;;;;;16.75;12.95;;;;;;;;;;5108450;27;20213;-72
2023/09/22 00:38:29;;;;;;;17.45;13.63;;;;;;;;;;5115615;27;20702;-72
2023/09/22 00:40:55;;;;;;;18.38;14.18;;;;;;;;;;5115571;27;20236;-71
2023/09/22 00:43:21;;;;;;;18.00;14.00;;;;;;;;;;5104231;27;20493;-69
2023/09/22 00:45:50;;;;;;;19.65;14.48;;;;;;;;;;5149829;27;20677;-71
2023/09/22 00:48:26;;;;;;;18.80;14.13;;;;;;;;;;5138456;27;20201;-71
2023/09/22 00:50:53;;;;;;;19.30;15.13;;;;;;;;;;5143903;27;20269;-70
2023/09/22 00:53:18;;;;;;;18.67;14.48;;;;;;;;;;5140018;27;20257;-70
2023/09/22 00:55:47;;;;;;;21.35;14.82;;;;;;;;;;5144526;27;20309;-69
2023/09/22 00:58:13;;;;;;;18.90;14.57;;;;;;;;;;5144746;27;20590;-70
2023/09/22 01:00:40;;;;;;;20.35;15.00;;;;;;;;;;5145220;27;20190;-67
2023/09/22 01:03:05;;;;;;;20.63;15.20;;;;;;;;;;5142802;27;20186;-70
2023/09/22 01:05:33;;;;;;;18.75;15.15;;;;;;;;;;5126328;27;20661;-72
2023/09/22 01:07:58;;;;;;;22.95;16.85;;;;;;;;;;5146016;27;20182;-70
2023/09/22 01:10:23;;;;;;;19.38;15.23;;;;;;;;;;5147079;27;20190;-69
2023/09/22 01:12:51;;;;;;;18.83;14.90;;;;;;;;;;5142121;27;20197;-70
2023/09/22 01:15:16;;;;;;;22.00;16.13;;;;;;;;;;5123402;27;20282;-71
2023/09/22 01:17:42;;;;;;;20.40;15.73;;;;;;;;;;5142280;27;20330;-71
2023/09/22 01:20:10;;;;;;;24.88;16.58;;;;;;;;;;5137283;27;20174;-68
2023/09/22 01:22:35;;;;;;;26.88;17.15;;;;;;;;;;5139267;27;20194;-71
2023/09/22 01:25:01;;;;;;;22.73;16.60;;;;;;;;;;5143236;27;20178;-69
2023/09/22 01:27:26;;;;;;;22.67;17.23;;;;;;;;;;5146305;27;20193;-71
2023/09/22 01:29:51;;;;;;;22.70;16.38;;;;;;;;;;5150680;27;20673;-68
2023/09/22 01:32:17;;;;;;;23.35;17.88;;;;;;;;;;5142328;27;20228;-69
2023/09/22 01:34:42;;;;;;;23.52;18.80;;;;;;;;;;5142717;27;20288;-71
2023/09/22 01:37:08;;;;;;;22.08;18.00;;;;;;;;;;5139233;27;20263;-71
2023/09/22 01:39:37;;;;;;;25.50;18.88;;;;;;;;;;5141777;27;20266;-70
2023/09/22 01:42:03;;;;;;;22.02;18.15;;;;;;;;;;5131426;27;20199;-70
2023/09/22 01:44:28;;;;;;;24.85;16.95;;;;;;;;;;5149038;27;20189;-70
2023/09/22 01:46:54;;;;;;;23.13;18.17;;;;;;;;;;5149825;27;20198;-68
2023/09/22 01:49:19;;;;;;;24.17;18.27;;;;;;;;;;5130870;27;20183;-68
2023/09/22 01:51:45;;;;;;;23.08;17.83;;;;;;;;;;5119914;27;20170;-68
2023/09/22 01:54:11;;;;;;;20.30;16.13;;;;;;;;;;5142127;27;20597;-68
2023/09/22 01:56:36;;;;;;;22.67;16.55;;;;;;;;;;5137300;27;20212;-70
2023/09/22 01:59:01;;;;;;;24.20;18.65;;;;;;;;;;5141203;27;20213;-68
2023/09/22 02:01:27;;;;;;;23.27;18.42;;;;;;;;;;5143986;27;20342;-70
2023/09/22 02:03:52;;;;;;;22.80;17.83;;;;;;;;;;5119494;27;20217;-69
2023/09/22 02:06:18;;;;;;;21.58;16.90;;;;;;;;;;5123198;27;20234;-69
2023/09/22 02:08:43;;;;;;;24.58;18.67;;;;;;;;;;5132290;27;20187;-70
2023/09/22 02:11:11;;;;;;;23.88;17.58;;;;;;;;;;5135670;27;20182;-69
2023/09/22 02:13:37;;;;;;;29.90;18.63;;;;;;;;;;5131451;27;20557;-70
2023/09/22 02:16:03;;;;;;;20.50;16.98;;;;;;;;;;5136403;27;20467;-70
2023/09/22 02:18:28;;;;;;;25.42;17.70;;;;;;;;;;5130498;27;20217;-70
2023/09/22 02:20:54;;;;;;;21.23;16.30;;;;;;;;;;5123163;27;20193;-70
2023/09/22 02:23:20;;;;;;;21.17;16.00;;;;;;;;;;5141252;27;20197;-70
2023/09/22 02:25:45;;;;;;;21.08;16.75;;;;;;;;;;5144263;27;20632;-69
2023/09/22 02:28:10;;;;;;;24.20;18.15;;;;;;;;;;5147863;27;20225;-69
2023/09/22 02:30:37;;;;;;;23.33;17.23;;;;;;;;;;5124473;27;20592;-70
2023/09/22 02:33:03;;;;;;;25.45;19.05;;;;;;;;;;5135317;27;20699;-69
2023/09/22 02:35:28;;;;;;;25.75;19.80;;;;;;;;;;5140597;27;20218;-68
2023/09/22 02:37:54;;;;;;;26.42;19.02;;;;;;;;;;5131642;27;20608;-69
2023/09/22 02:40:19;;;;;;;27.40;19.90;;;;;;;;;;5141199;27;20586;-69
2023/09/22 02:42:45;;;;;;;27.52;20.10;;;;;;;;;;5143464;27;20308;-69
2023/09/22 02:45:10;;;;;;;27.83;18.95;;;;;;;;;;5128075;27;20182;-70
2023/09/22 02:47:40;;;;;;;26.08;18.95;;;;;;;;;;5148696;27;20182;-69
2023/09/22 02:50:11;;;;;;;29.67;21.50;;;;;;;;;;5130060;27;20689;-67
2023/09/22 02:52:42;;;;;;;25.17;19.55;;;;;;;;;;5138792;27;20181;-67
2023/09/22 02:55:09;;;;;;;29.35;21.95;;;;;;;;;;5147208;27;20702;-68
2023/09/22 02:57:36;;;;;;;31.67;23.00;;;;;;;;;;5130715;27;20734;-69
2023/09/22 03:00:11;;;;;;;38.55;24.38;;;;;;;;;;5119118;27;20215;-68
2023/09/22 03:02:37;;;;;;;32.30;23.95;;;;;;;;;;5131445;27;20183;-68
2023/09/22 03:05:06;;;;;;;36.65;22.67;;;;;;;;;;5121062;27;20541;-68
2023/09/22 03:07:31;;;;;;;33.65;23.50;;;;;;;;;;5123691;27;20229;-69
2023/09/22 03:09:57;;;;;;;33.83;23.60;;;;;;;;;;5116499;27;20342;-70
2023/09/22 03:12:22;;;;;;;34.42;23.88;;;;;;;;;;5126910;27;20180;-69
2023/09/22 03:14:48;;;;;;;38.30;24.45;;;;;;;;;;5118578;27;20215;-70
2023/09/22 03:17:14;;;;;;;40.60;25.40;;;;;;;;;;5121136;27;20263;-69
2023/09/22 03:19:39;;;;;;;36.40;25.17;;;;;;;;;;5124221;27;20179;-69
2023/09/22 03:22:04;;;;;;;33.30;23.10;;;;;;;;;;5111941;28;20519;-70
2023/09/22 03:24:30;;;;;;;34.92;23.75;;;;;;;;;;5114040;27;20183;-69
2023/09/22 03:26:55;;;;;;;35.15;23.10;;;;;;;;;;5123744;27;20202;-68
2023/09/22 03:29:21;;;;;;;37.53;24.92;;;;;;;;;;5126169;27;20270;-68
2023/09/22 03:31:46;;;;;;;35.05;22.85;;;;;;;;;;5133012;27;20625;-69
2023/09/22 03:34:11;;;;;;;34.85;23.98;;;;;;;;;;5128946;27;20266;-69
2023/09/22 03:36:37;;;;;;;33.85;21.27;;;;;;;;;;5128868;27;20198;-68
2023/09/22 03:39:07;;;;;;;32.63;22.55;;;;;;;;;;5116700;27;20191;-69
2023/09/22 03:41:35;;;;;;;37.30;23.58;;;;;;;;;;5123121;27;20198;-69
2023/09/22 03:44:01;;;;;;;34.00;22.98;;;;;;;;;;5127814;27;20323;-69
2023/09/22 03:46:26;;;;;;;31.85;21.85;;;;;;;;;;5119111;27;20621;-69
2023/09/22 03:48:51;;;;;;;28.85;20.13;;;;;;;;;;5113708;27;20187;-71
2023/09/22 03:51:17;;;;;;;27.80;19.00;;;;;;;;;;5112705;27;20194;-69
2023/09/22 03:53:42;;;;;;;28.15;19.25;;;;;;;;;;5116786;27;20195;-71
2023/09/22 03:56:09;;;;;;;29.67;20.13;;;;;;;;;;5124526;27;20195;-70
2023/09/22 03:58:34;;;;;;;28.77;19.45;;;;;;;;;;5141810;27;20254;-69
2023/09/22 04:01:07;;;;;;;33.40;20.85;;;;;;;;;;5137602;27;20228;-70
2023/09/22 04:03:32;;;;;;;28.17;19.10;;;;;;;;;;5127874;27;20182;-69
2023/09/22 04:05:58;;;;;;;31.48;20.25;;;;;;;;;;5121615;27;20195;-69
2023/09/22 04:08:24;;;;;;;30.83;19.88;;;;;;;;;;5137254;27;20640;-68
2023/09/22 04:10:49;;;;;;;28.50;18.38;;;;;;;;;;5134415;27;20187;-68
2023/09/22 04:13:15;;;;;;;30.48;19.77;;;;;;;;;;5144301;27;20233;-69
2023/09/22 04:15:40;;;;;;;29.23;18.85;;;;;;;;;;5142254;27;20206;-67
2023/09/22 04:18:06;;;;;;;30.42;18.48;;;;;;;;;;5137642;27;20358;-69
2023/09/22 04:20:33;;;;;;;27.92;17.23;;;;;;;;;;5139383;27;20214;-69
2023/09/22 04:22:59;;;;;;;26.30;17.15;;;;;;;;;;5133159;27;20511;-69
2023/09/22 04:25:34;;;;;;;28.63;17.50;;;;;;;;;;5139771;27;20454;-69
2023/09/22 04:28:09;;;;;;;29.95;16.83;;;;;;;;;;5131277;27;20711;-70
2023/09/22 04:30:39;;;;;;;24.73;15.85;;;;;;;;;;5124169;27;20221;-68
2023/09/22 04:33:05;;;;;;;27.50;16.27;;;;;;;;;;5145019;27;20188;-69
2023/09/22 04:35:34;;;;;;;26.80;14.35;;;;;;;;;;5138906;27;20296;-68
2023/09/22 04:37:59;;;;;;;24.58;15.20;;;;;;;;;;5147748;27;20275;-69
2023/09/22 04:40:29;;;;;;;29.38;16.67;;;;;;;;;;5141161;27;20235;-69
2023/09/22 04:42:55;;;;;;;26.33;14.27;;;;;;;;;;5137524;27;20239;-69
2023/09/22 04:45:21;;;;;;;27.55;15.73;;;;;;;;;;5133779;27;20190;-69
2023/09/22 04:47:47;;;;;;;29.98;15.73;;;;;;;;;;5125765;27;20532;-68
2023/09/22 04:50:16;;;;;;;28.08;14.80;;;;;;;;;;5118908;27;20187;-68
2023/09/22 04:52:42;;;;;;;25.92;13.95;;;;;;;;;;5132012;27;20187;-70
2023/09/22 04:55:08;;;;;;;25.33;13.75;;;;;;;;;;5135352;27;20423;-69
2023/09/22 04:57:33;;;;;;;26.75;14.68;;;;;;;;;;5148777;27;20236;-69
2023/09/22 04:59:58;;;;;;;24.40;14.57;;;;;;;;;;5138352;27;20399;-70
2023/09/22 05:02:24;;;;;;;33.60;15.27;;;;;;;;;;5135716;27;20218;-67
2023/09/22 05:04:49;;;;;;;28.88;15.02;;;;;;;;;;5130640;27;20260;-70
2023/09/22 05:07:16;;;;;;;26.58;14.73;;;;;;;;;;5120900;27;20196;-70
2023/09/22 05:09:42;;;;;;;23.90;14.35;;;;;;;;;;5139918;27;20182;-70
2023/09/22 05:12:09;;;;;;;25.25;15.02;;;;;;;;;;5147484;27;20182;-70
2023/09/22 05:14:35;;;;;;;26.40;14.45;;;;;;;;;;5139941;27;20213;-69
2023/09/22 05:17:00;;;;;;;23.75;14.52;;;;;;;;;;5137587;27;20238;-70
2023/09/22 05:19:25;;;;;;;32.22;15.30;;;;;;;;;;5118892;27;20186;-70
2023/09/22 05:21:51;;;;;;;28.98;14.85;;;;;;;;;;5147820;27;20289;-70
2023/09/22 05:24:17;;;;;;;28.05;14.13;;;;;;;;;;5139148;27;20182;-70
2023/09/22 05:26:42;;;;;;;25.15;14.40;;;;;;;;;;5135814;27;20211;-70
2023/09/22 05:29:08;;;;;;;27.20;14.35;;;;;;;;;;5131814;27;20666;-71
2023/09/22 05:31:45;;;;;;;27.42;13.32;;;;;;;;;;4836640;27;10001216;-72
2023/09/22 05:34:10;;;;;;;26.73;14.07;;;;;;;;;;5126935;27;20772;-69
2023/09/22 05:36:36;;;;;;;25.33;14.30;;;;;;;;;;5111945;27;20198;-69
2023/09/22 05:39:02;;;;;;;26.15;13.48;;;;;;;;;;5118237;27;20230;-69
2023/09/22 05:41:28;;;;;;;28.15;14.43;;;;;;;;;;5133780;27;20629;-68
2023/09/22 05:43:56;;;;;;;25.83;13.68;;;;;;;;;;5131918;27;20244;-69
2023/09/22 05:46:22;;;;;;;22.70;12.88;;;;;;;;;;5116395;27;20594;-69
2023/09/22 05:48:47;;;;;;;26.38;14.52;;;;;;;;;;5136175;27;20182;-69
2023/09/22 05:51:14;;;;;;;28.00;14.25;;;;;;;;;;5135762;27;20242;-70
2023/09/22 05:53:40;;;;;;;27.42;14.07;;;;;;;;;;5133197;27;20214;-70
2023/09/22 05:56:07;;;;;;;28.55;14.27;;;;;;;;;;5104812;27;20218;-69
2023/09/22 05:58:35;;;;;;;27.98;12.80;;;;;;;;;;5130370;27;20231;-69
2023/09/22 06:01:08;;;;;;;29.95;14.77;;;;;;;;;;5133934;27;20209;-70
2023/09/22 06:03:34;;;;;;;25.10;13.27;;;;;;;;;;5112247;27;20628;-67
2023/09/22 06:06:08;;;;;;;22.55;13.45;;;;;;;;;;5130946;27;20183;-69
2023/09/22 06:08:34;;;;;;;23.98;13.70;;;;;;;;;;5144345;27;20302;-69
2023/09/22 06:10:59;;;;;;;23.98;13.85;;;;;;;;;;5138734;27;20637;-69
2023/09/22 06:13:25;;;;;;;26.42;13.95;;;;;;;;;;5136678;27;20307;-68
2023/09/22 06:15:51;;;;;;;24.10;14.40;;;;;;;;;;5147394;27;20362;-68
2023/09/22 06:18:18;;;;;;;22.98;13.40;;;;;;;;;;5133887;27;20589;-69
2023/09/22 06:20:44;;;;;;;26.38;15.10;;;;;;;;;;5140477;27;20191;-69
2023/09/22 06:23:10;;;;;;;25.45;13.57;;;;;;;;;;5130209;27;20261;-70
2023/09/22 06:25:35;;;;;;;25.08;13.57;;;;;;;;;;5137399;27;20204;-69
2023/09/22 06:28:00;;;;;;;26.13;13.48;;;;;;;;;;5135841;27;20182;-70
2023/09/22 06:30:26;;;;;;;26.20;13.15;;;;;;;;;;5133039;27;20283;-69
2023/09/22 06:32:51;;;;;;;27.02;14.13;;;;;;;;;;5136551;27;20305;-69
2023/09/22 06:35:17;;;;;;;25.80;13.82;;;;;;;;;;5148205;27;20312;-69
2023/09/22 06:37:43;;;;;;;29.10;13.38;;;;;;;;;;5138923;27;20235;-70
2023/09/22 06:40:12;;;;;;;25.55;13.02;;;;;;;;;;5140649;27;20284;-70
2023/09/22 06:42:42;;;;;;;20.23;12.40;;;;;;;;;;5142819;27;20556;-70
2023/09/22 06:45:11;;;;;;;19.30;11.20;;;;;;;;;;5139516;27;20239;-69
2023/09/22 06:47:37;;;;;;;16.05;10.73;;;;;;;;;;5138185;27;20244;-70
2023/09/22 06:50:09;;;;;;;16.80;10.30;;;;;;;;;;5128686;27;20187;-68
2023/09/22 06:52:36;;;;;;;17.70;8.63;;;;;;;;;;5137140;27;20217;-70
2023/09/22 06:55:01;;;;;;;18.63;8.90;;;;;;;;;;5144951;27;20203;-69
2023/09/22 06:57:27;;;;;;;17.38;9.20;;;;;;;;;;5134774;27;20301;-68
2023/09/22 06:59:52;;;;;;;16.25;8.85;;;;;;;;;;5137429;27;20593;-69
2023/09/22 07:02:18;;;;;;;16.40;8.27;;;;;;;;;;5131078;27;20215;-69
2023/09/22 07:04:44;;;;;;;12.80;7.40;;;;;;;;;;5127342;27;20190;-68
2023/09/22 07:07:11;;;;;;;9.32;5.95;;;;;;;;;;5128262;27;20528;-70
2023/09/22 07:09:37;;;;;;;8.00;5.65;;;;;;;;;;5130241;27;20182;-70
2023/09/22 07:12:04;;;;;;;10.25;5.20;;;;;;;;;;5134718;27;20239;-69
2023/09/22 07:14:29;;;;;;;6.32;4.10;;;;;;;;;;5136775;27;20222;-67
2023/09/22 07:16:54;;;;;;;7.72;4.43;;;;;;;;;;5128445;27;20218;-70
2023/09/22 07:19:21;;;;;;;9.65;4.05;;;;;;;;;;5135790;27;20214;-68
2023/09/22 07:21:48;;;;;;;9.43;4.07;;;;;;;;;;5135175;27;20185;-68
2023/09/22 07:24:15;;;;;;;10.55;4.00;;;;;;;;;;5119713;27;20575;-68
2023/09/22 07:26:40;;;;;;;6.90;3.63;;;;;;;;;;5134693;27;20201;-68
2023/09/22 07:29:06;;;;;;;5.10;3.35;;;;;;;;;;5133568;27;20250;-71
2023/09/22 07:31:31;;;;;;;7.82;3.60;;;;;;;;;;5138880;27;20609;-68
2023/09/22 07:33:57;;;;;;;4.90;2.58;;;;;;;;;;5137012;27;20198;-69
2023/09/22 07:36:23;;;;;;;5.82;2.67;;;;;;;;;;5138836;27;20205;-69
2023/09/22 07:38:48;;;;;;;5.55;2.40;;;;;;;;;;5146244;27;20194;-69
2023/09/22 07:41:14;;;;;;;5.88;2.70;;;;;;;;;;5133391;27;20570;-69
2023/09/22 07:43:39;;;;;;;5.82;2.90;;;;;;;;;;5131420;27;20425;-69
2023/09/22 07:46:06;;;;;;;5.05;2.70;;;;;;;;;;5141425;27;20187;-68
2023/09/22 07:48:32;;;;;;;6.78;2.60;;;;;;;;;;5143063;27;20540;-68
2023/09/22 07:51:00;;;;;;;5.47;2.30;;;;;;;;;;5130346;27;20505;-68
2023/09/22 07:53:25;;;;;;;7.70;2.45;;;;;;;;;;5136854;27;20263;-68
2023/09/22 07:55:55;;;;;;;6.40;2.30;;;;;;;;;;5146783;27;20720;-69
2023/09/22 07:58:22;;;;;;;5.85;2.28;;;;;;;;;;5142428;27;20214;-69
2023/09/22 08:00:47;;;;;;;4.30;2.10;;;;;;;;;;5136759;27;20186;-70
2023/09/22 08:03:13;;;;;;;8.55;2.25;;;;;;;;;;5138780;27;20187;-70
2023/09/22 08:05:39;;;;;;;4.97;2.40;;;;;;;;;;5134132;27;20194;-71
2023/09/22 08:08:05;;;;;;;6.75;1.90;;;;;;;;;;5136009;27;20574;-68
2023/09/22 08:10:31;;;;;;;5.13;2.05;;;;;;;;;;5145668;27;20333;-71
2023/09/22 08:12:56;;;;;;;7.00;1.58;;;;;;;;;;5136089;27;20649;-69
2023/09/22 08:15:22;;;;;;;6.07;1.60;;;;;;;;;;5141673;27;20202;-70
2023/09/22 08:17:49;;;;;;;5.53;1.92;;;;;;;;;;5134217;27;20550;-68
2023/09/22 08:20:15;;;;;;;5.18;1.70;;;;;;;;;;5140045;27;20178;-70
2023/09/22 08:22:42;;;;;;;6.72;1.88;;;;;;;;;;5148855;27;20197;-70
2023/09/22 08:25:09;;;;;;;4.25;1.77;;;;;;;;;;5150239;27;20186;-69
2023/09/22 08:27:35;;;;;;;4.38;1.90;;;;;;;;;;5146718;27;20640;-70
2023/09/22 08:30:15;;;;;;;4.82;1.60;;;;;;;;;;5137626;27;20206;-71
2023/09/22 08:32:44;;;;;;;6.35;1.95;;;;;;;;;;5140964;27;20202;-68
2023/09/22 08:35:11;;;;;;;3.30;1.65;;;;;;;;;;5122955;27;20311;-70
2023/09/22 08:37:38;;;;;;;7.13;1.80;;;;;;;;;;5136252;27;20210;-70
2023/09/22 08:40:14;;;;;;;4.28;1.73;;;;;;;;;;5139074;27;20734;-69
2023/09/22 08:42:43;;;;;;;3.50;1.60;;;;;;;;;;5134256;27;20190;-69
2023/09/22 08:45:10;;;;;;;4.13;1.60;;;;;;;;;;5144113;27;20191;-70
2023/09/22 08:47:39;;;;;;;3.17;1.52;;;;;;;;;;5148267;27;20190;-70
2023/09/22 08:50:34;;;;;;;2.97;1.23;;;;;;;;;;5130406;27;20189;-70
2023/09/22 08:52:59;;;;;;;2.63;1.48;;;;;;;;;;5121192;27;20270;-69
2023/09/22 08:55:26;;;;;;;3.53;1.50;;;;;;;;;;5143824;27;20333;-68
2023/09/22 08:57:53;;;;;;;3.08;1.60;;;;;;;;;;5112249;27;20218;-71
2023/09/22 09:00:21;;;;;;;4.07;1.30;;;;;;;;;;5131803;27;20320;-69
2023/09/22 09:02:51;;;;;;;4.63;1.20;;;;;;;;;;5130078;27;20195;-70
2023/09/22 09:05:30;;;;;;;4.22;1.40;;;;;;;;;;5138133;27;20195;-69
2023/09/22 09:08:23;;;;;;;3.08;1.20;;;;;;;;;;5139693;27;20323;-71
2023/09/22 09:10:49;;;;;;;3.40;0.95;;;;;;;;;;5137930;27;20247;-70
2023/09/22 09:13:19;;;;;;;3.13;1.08;;;;;;;;;;5125287;27;20557;-70
2023/09/22 09:15:57;;;;;;;5.28;0.90;;;;;;;;;;5139636;27;20195;-69
2023/09/22 09:18:24;;;;;;;1.75;1.08;;;;;;;;;;5149788;27;20209;-70
2023/09/22 09:21:16;;;;;;;2.90;1.10;;;;;;;;;;5138595;27;20190;-72
2023/09/22 09:23:54;;;;;;;2.70;1.00;;;;;;;;;;5140976;27;20274;-72
2023/09/22 09:26:26;;;;;;;4.57;1.20;;;;;;;;;;5118256;27;20660;-72
2023/09/22 09:28:53;;;;;;;4.40;1.13;;;;;;;;;;5149738;27;20185;-70
2023/09/22 09:31:19;;;;;;;4.55;1.10;;;;;;;;;;5137374;27;20189;-69
2023/09/22 09:33:51;;;;;;;1.20;0.70;;;;;;;;;;5131279;27;20247;-70
2023/09/22 09:36:17;;;;;;;5.70;0.77;;;;;;;;;;5145133;27;20704;-71
2023/09/22 09:38:42;;;;;;;1.45;0.70;;;;;;;;;;5135716;27;20186;-71
2023/09/22 09:41:10;;;;;;;4.05;0.60;;;;;;;;;;5141627;27;20243;-69
2023/09/22 09:43:37;;;;;;;5.95;0.93;;;;;;;;;;5112384;27;20187;-71
2023/09/22 09:46:02;;;;;;;2.20;0.65;;;;;;;;;;5134717;27;20227;-71
2023/09/22 09:48:28;;;;;;;3.53;0.90;;;;;;;;;;5138714;27;20658;-72
2023/09/22 09:50:58;;;;;;;2.88;0.60;;;;;;;;;;5129545;27;20181;-69
2023/09/22 09:53:42;;;;;;;2.25;0.60;;;;;;;;;;5122961;27;20185;-71
2023/09/22 09:56:11;;;;;;;1.27;0.47;;;;;;;;;;5136040;27;20217;-71
2023/09/22 09:58:37;;;;;;;1.90;0.65;;;;;;;;;;5141904;27;20747;-70
2023/09/22 10:01:05;;;;;;;1.58;0.80;;;;;;;;;;5150438;27;20273;-72
2023/09/22 10:03:32;;;;;;;4.07;0.75;;;;;;;;;;5139778;27;20254;-71
2023/09/22 10:05:57;;;;;;;2.67;1.00;;;;;;;;;;5147403;27;20181;-71
2023/09/22 10:08:25;;;;;;;0.70;0.60;;;;;;;;;;5125007;27;20175;-71
2023/09/22 10:10:54;;;;;;;2.63;0.73;;;;;;;;;;5137796;27;20587;-69
2023/09/22 10:13:20;;;;;;;2.83;0.85;;;;;;;;;;5135175;27;20270;-69
2023/09/22 10:15:52;;;;;;;3.60;0.70;;;;;;;;;;5134820;27;20206;-71
2023/09/22 10:18:19;;;;;;;1.45;0.52;;;;;;;;;;5110784;27;20202;-72
2023/09/22 10:20:45;;;;;;;2.45;0.63;;;;;;;;;;5131009;27;20668;-71
2023/09/22 10:23:17;;;;;;;1.17;0.50;;;;;;;;;;5104887;27;20224;-72
2023/09/22 10:25:42;;;;;;;2.47;0.57;;;;;;;;;;5136971;27;20193;-69
2023/09/22 10:28:09;;;;;;;1.33;0.40;;;;;;;;;;5129142;27;20175;-71
2023/09/22 10:30:43;;;;;;;3.63;0.70;;;;;;;;;;5136776;27;20656;-70
2023/09/22 10:33:25;;;;;;;1.25;0.50;;;;;;;;;;5139081;27;20225;-72
2023/09/22 10:35:51;;;;;;;3.40;0.60;;;;;;;;;;5137001;27;20612;-70
2023/09/22 10:38:19;;;;;;;1.83;0.80;;;;;;;;;;5134218;27;20549;-70
2023/09/22 10:41:01;;;;;;;3.88;0.70;;;;;;;;;;5149369;27;20205;-70
2023/09/22 10:43:27;;;;;;;1.92;0.75;;;;;;;;;;5148345;27;20269;-71
2023/09/22 10:45:53;;;;;;;1.55;0.60;;;;;;;;;;5113092;27;20587;-71
2023/09/22 10:48:18;;;;;;;3.80;0.60;;;;;;;;;;5111050;28;20598;-71
2023/09/22 10:50:52;;;;;;;1.15;0.43;;;;;;;;;;5129699;27;20195;-72
2023/09/22 10:53:18;;;;;;;1.35;0.40;;;;;;;;;;5136634;27;20205;-71
2023/09/22 10:55:45;;;;;;;1.25;0.40;;;;;;;;;;5149987;27;20244;-68
2023/09/22 10:58:11;;;;;;;1.77;0.50;;;;;;;;;;5115072;27;20222;-70
2023/09/22 11:00:39;;;;;;;2.17;0.68;;;;;;;;;;5116425;27;20282;-72
2023/09/22 11:03:06;;;;;;;0.70;0.40;;;;;;;;;;5117113;28;20210;-70
2023/09/22 11:05:34;;;;;;;1.58;0.70;;;;;;;;;;5116285;28;20672;-70
2023/09/22 11:08:01;;;;;;;1.55;0.43;;;;;;;;;;5117113;28;20258;-70
2023/09/22 11:10:27;;;;;;;1.98;0.63;;;;;;;;;;5116917;28;20179;-74
2023/09/22 11:12:54;;;;;;;2.58;0.60;;;;;;;;;;5115640;27;20239;-71
2023/09/22 11:15:20;;;;;;;1.95;0.50;;;;;;;;;;5117254;27;20260;-69
2023/09/22 11:17:47;;;;;;;5.70;0.80;;;;;;;;;;5114089;27;20219;-73
2023/09/22 11:20:28;;;;;;;2.38;0.60;;;;;;;;;;5118431;27;20221;-72
2023/09/22 11:22:55;;;;;;;0.52;0.40;;;;;;;;;;5120011;27;20484;-74
2023/09/22 11:25:22;;;;;;;3.65;0.70;;;;;;;;;;5117653;27;20255;-73
2023/09/22 11:27:49;;;;;;;1.15;0.43;;;;;;;;;;5111242;27;20669;-70
2023/09/22 11:30:19;;;;;;;1.45;0.68;;;;;;;;;;5121494;27;20192;-72
2023/09/22 11:32:46;;;;;;;2.58;0.85;;;;;;;;;;5118215;27;20190;-70
2023/09/22 11:35:41;;;;;;;1.80;0.77;;;;;;;;;;5111113;27;20206;-71
2023/09/22 11:38:29;;;;;;;1.48;0.60;;;;;;;;;;5111844;27;20236;-73
2023/09/22 11:41:14;;;;;;;1.42;0.50;;;;;;;;;;5110202;27;20191;-77
2023/09/22 11:43:41;;;;;;;2.05;0.45;;;;;;;;;;5116370;27;20183;-72
2023/09/22 11:46:15;;;;;;;2.10;0.50;;;;;;;;;;5124429;27;20172;-71
2023/09/22 11:48:57;;;;;;;1.45;0.57;;;;;;;;;;5114694;27;20194;-71
2023/09/22 11:51:41;;;;;;;4.18;0.60;;;;;;;;;;5112087;27;20213;-70
2023/09/22 11:54:07;;;;;;;1.48;0.30;;;;;;;;;;5112293;27;20185;-70
2023/09/22 11:56:33;;;;;;;2.78;0.40;;;;;;;;;;5131017;27;20680;-73
2023/09/22 11:59:13;;;;;;;1.08;0.47;;;;;;;;;;5130615;27;20204;-70
2023/09/22 12:01:39;;;;;;;1.80;0.60;;;;;;;;;;5150503;27;20545;-70
2023/09/22 12:04:05;;;;;;;1.48;0.50;;;;;;;;;;5139851;27;20544;-70
2023/09/22 12:06:31;;;;;;;2.00;0.40;;;;;;;;;;5142533;27;20200;-69
2023/09/22 12:08:58;;;;;;;1.42;0.50;;;;;;;;;;5126492;27;20234;-73
2023/09/22 12:11:24;;;;;;;1.70;0.50;;;;;;;;;;5133537;27;20534;-72
2023/09/22 12:13:49;;;;;;;1.35;0.57;;;;;;;;;;5144746;27;20268;-71
2023/09/22 12:16:15;;;;;;;2.08;0.45;;;;;;;;;;5148241;27;20255;-71
2023/09/22 12:18:40;;;;;;;2.28;0.80;;;;;;;;;;5122579;27;20255;-71
2023/09/22 12:21:06;;;;;;;2.72;0.65;;;;;;;;;;5111778;27;20266;-70
2023/09/22 12:23:33;;;;;;;2.30;0.60;;;;;;;;;;5130721;27;20594;-71
2023/09/22 12:25:59;;;;;;;0.60;0.38;;;;;;;;;;5112378;27;20483;-72
2023/09/22 12:28:24;;;;;;;1.58;0.55;;;;;;;;;;5132335;27;20454;-73
2023/09/22 12:30:53;;;;;;;0.98;0.60;;;;;;;;;;5137367;27;20195;-71
2023/09/22 12:33:18;;;;;;;1.33;0.50;;;;;;;;;;5137490;27;20681;-70
2023/09/22 12:35:44;;;;;;;2.05;0.50;;;;;;;;;;5133492;27;20207;-71
2023/09/22 12:38:10;;;;;;;0.70;0.50;;;;;;;;;;5139576;27;20364;-69
2023/09/22 12:40:36;;;;;;;2.35;0.50;;;;;;;;;;5127378;27;20349;-70
2023/09/22 12:43:02;;;;;;;2.97;0.57;;;;;;;;;;5143356;27;20197;-71
2023/09/22 12:45:30;;;;;;;1.33;0.60;;;;;;;;;;5119921;27;20194;-70
2023/09/22 12:47:56;;;;;;;2.95;1.20;;;;;;;;;;5135891;27;20178;-72
2023/09/22 12:50:21;;;;;;;1.95;0.98;;;;;;;;;;5119858;27;20239;-70
2023/09/22 12:52:46;;;;;;;5.28;1.42;;;;;;;;;;5133646;27;20185;-70
2023/09/22 12:55:12;;;;;;;5.20;1.50;;;;;;;;;;5133132;27;20234;-70
2023/09/22 12:57:38;;;;;;;4.20;1.02;;;;;;;;;;5135184;27;20749;-70
2023/09/22 13:00:06;;;;;;;2.80;1.20;;;;;;;;;;5145475;27;20254;-70
2023/09/22 13:02:31;;;;;;;1.90;0.70;;;;;;;;;;5132499;27;20179;-71
2023/09/22 13:04:56;;;;;;;1.77;0.60;;;;;;;;;;5146504;27;20189;-71
2023/09/22 13:07:22;;;;;;;3.10;0.75;;;;;;;;;;5134176;27;20361;-71
2023/09/22 13:09:48;;;;;;;1.67;0.50;;;;;;;;;;5124511;27;20193;-70
2023/09/22 13:12:14;;;;;;;1.67;0.43;;;;;;;;;;5133841;27;20243;-70
2023/09/22 13:14:39;;;;;;;1.20;0.50;;;;;;;;;;5142015;27;20194;-71
2023/09/22 13:17:05;;;;;;;1.95;0.43;;;;;;;;;;5132796;27;20681;-69
2023/09/22 13:19:31;;;;;;;1.60;0.60;;;;;;;;;;5117144;27;20233;-71
2023/09/22 13:21:57;;;;;;;1.40;0.50;;;;;;;;;;5145892;27;20299;-70
2023/09/22 13:24:22;;;;;;;1.58;0.45;;;;;;;;;;5131217;27;20305;-70
2023/09/22 13:26:49;;;;;;;1.67;0.50;;;;;;;;;;5130432;27;20481;-70
2023/09/22 13:29:15;;;;;;;2.30;0.35;;;;;;;;;;5134867;27;20206;-71
2023/09/22 13:31:40;;;;;;;0.70;0.45;;;;;;;;;;5133686;27;20214;-69
2023/09/22 13:34:05;;;;;;;1.58;0.60;;;;;;;;;;5140925;27;20287;-70
2023/09/22 13:36:32;;;;;;;3.22;0.65;;;;;;;;;;5138414;27;20253;-71
2023/09/22 13:38:57;;;;;;;2.30;0.50;;;;;;;;;;5119909;27;20750;-71
2023/09/22 13:41:24;;;;;;;2.15;0.40;;;;;;;;;;5135580;27;20186;-71
2023/09/22 13:43:49;;;;;;;1.13;0.50;;;;;;;;;;5115105;27;20175;-71
2023/09/22 13:46:15;;;;;;;1.67;0.45;;;;;;;;;;5116169;27;20193;-72
2023/09/22 13:48:41;;;;;;;1.85;0.70;;;;;;;;;;5134123;27;20194;-69
2023/09/22 13:51:08;;;;;;;1.25;0.50;;;;;;;;;;5135067;27;20352;-73
2023/09/22 13:53:34;;;;;;;0.52;0.40;;;;;;;;;;5133487;27;20499;-70
2023/09/22 13:56:01;;;;;;;6.90;0.57;;;;;;;;;;5116681;27;20572;-70
2023/09/22 13:58:27;;;;;;;2.05;0.50;;;;;;;;;;5132279;27;20218;-70
2023/09/22 14:00:53;;;;;;;2.03;0.82;;;;;;;;;;5137700;27;20186;-72
2023/09/22 14:03:18;;;;;;;1.95;0.55;;;;;;;;;;5121459;27;20174;-72
2023/09/22 14:05:43;;;;;;;2.22;0.63;;;;;;;;;;5140225;27;20349;-71
2023/09/22 14:08:09;;;;;;;2.08;0.60;;;;;;;;;;5122203;27;20197;-73
2023/09/22 14:10:35;;;;;;;1.42;0.50;;;;;;;;;;5130007;27;20498;-70
2023/09/22 14:13:00;;;;;;;2.40;0.70;;;;;;;;;;5102864;27;20187;-71
2023/09/22 14:15:26;;;;;;;2.72;0.70;;;;;;;;;;5125190;27;20708;-71
2023/09/22 14:17:52;;;;;;;1.27;0.40;;;;;;;;;;5130410;27;20340;-69
2023/09/22 14:20:20;;;;;;;3.53;0.70;;;;;;;;;;5114308;27;20853;-71
2023/09/22 14:22:46;;;;;;;5.25;1.05;;;;;;;;;;5130827;27;20270;-70
2023/09/22 14:25:12;;;;;;;6.32;0.50;;;;;;;;;;5130242;27;20187;-69
2023/09/22 14:27:39;;;;;;;1.27;0.40;;;;;;;;;;5138626;27;20186;-72
2023/09/22 14:30:07;;;;;;;3.38;0.65;;;;;;;;;;5132799;27;20489;-70
2023/09/22 14:32:33;;;;;;;0.82;0.47;;;;;;;;;;4419308;27;10000717;-70